Time;durP1;ratioP1;P1;durP2;ratioP2;P2;SDS_P1;SDS_P2;PMS_P1;PMS_P2;Temp;Humidity;BMP_temperature;BMP_pressure;BME280_temperature;BME280_humidity;BME280_pressure;Samples;Min_cycle;Max_cycle;Signal;HPM_P1;HPM_P2
2022/01/16 00:28:59;;;;;;;;;47.25;37.75;;;;;2.09;65.05;102345.97;6236689;22;45408;-85
2022/01/16 00:31:40;;;;;;;;;62.00;46.25;;;;;2.32;64.75;102402.72;6217853;22;45317;-85
2022/01/16 00:34:14;;;;;;;;;63.50;50.50;;;;;2.18;64.82;102388.06;6247454;22;45422;-85
2022/01/16 00:36:48;;;;;;;;;57.50;45.50;;;;;2.35;64.76;102409.78;6220469;22;45300;-88
2022/01/16 00:39:40;;;;;;;;;64.00;46.00;;;;;2.18;64.80;102365.56;6220983;22;45234;-86
2022/01/16 00:42:18;;;;;;;;;61.00;46.00;;;;;2.25;64.54;102333.03;6248601;22;45226;-85
2022/01/16 00:44:51;;;;;;;;;50.00;41.00;;;;;2.30;64.25;102348.88;6249012;22;46328;-86
2022/01/16 00:47:29;;;;;;;;;;;;;;;;;;;;;
2022/01/16 00:50:03;;;;;;;;;60.50;46.00;;;;;2.24;64.58;102352.03;6248816;22;68880;-84
2022/01/16 00:52:40;;;;;;;;;57.75;45.50;;;;;2.17;64.47;102362.91;6249055;22;45241;-85
2022/01/16 00:55:08;;;;;;;;;65.25;49.00;;;;;2.26;64.55;102379.00;6245839;22;47143;-87
2022/01/16 00:57:51;;;;;;;;;61.00;47.00;;;;;2.27;64.70;102392.88;6221580;22;45451;-85
2022/01/16 01:00:25;;;;;;;;;61.75;47.00;;;;;2.26;64.82;102379.00;6220989;22;45510;-87
2022/01/16 01:03:04;;;;;;;;;57.50;44.25;;;;;2.17;64.57;102414.84;6246691;22;45612;-85
2022/01/16 01:05:50;;;;;;;;;56.75;46.50;;;;;2.30;64.80;102422.53;6220720;22;48025;-85
2022/01/16 01:08:31;;;;;;;;;55.00;43.75;;;;;2.13;65.10;102424.16;6222109;22;45392;-85
2022/01/16 01:11:41;;;;;;;;;;;;;;;;;;;;;
2022/01/16 01:15:03;;;;;;;;;59.75;48.25;;;;;2.24;64.83;102455.94;6247925;22;72088;-85
2022/01/16 01:17:36;;;;;;;;;63.75;49.25;;;;;2.22;64.96;102403.03;6249016;22;45419;-84
2022/01/16 01:20:21;;;;;;;;;64.00;50.00;;;;;1.98;65.11;102380.03;6248159;22;45460;-84
2022/01/16 01:22:55;;;;;;;;;60.75;46.50;;;;;2.16;65.26;102381.88;6221201;22;45296;-84
2022/01/16 01:25:52;;;;;;;;;61.75;49.00;;;;;2.14;65.55;102337.63;6247617;22;45271;-84
2022/01/16 01:28:34;;;;;;;;;55.00;45.75;;;;;2.16;65.75;102322.13;6219463;22;46141;-84
2022/01/16 01:31:35;;;;;;;;;66.25;48.50;;;;;2.13;65.70;102304.66;6220164;22;45630;-85
2022/01/16 01:34:04;;;;;;;;;59.00;50.75;;;;;2.19;66.09;102322.28;6244497;22;45123;-85
2022/01/16 01:36:49;;;;;;;;;;;;;;;;;;;;;
2022/01/16 01:39:23;;;;;;;;;66.00;48.00;;;;;2.21;66.09;102383.03;6247808;22;75687;-85
2022/01/16 01:42:01;;;;;;;;;;;;;;;;;;;;;
2022/01/16 01:52:54;;;;;;;;;62.75;51.50;;;;;2.24;66.60;102421.28;6250256;22;45461;-85
2022/01/16 01:55:24;;;;;;;;;57.00;47.50;;;;;2.21;66.99;102432.41;6247485;22;45308;-85
2022/01/16 01:57:59;;;;;;;;;60.25;47.25;;;;;2.04;66.97;102395.06;6247768;22;46284;-85
2022/01/16 02:00:45;;;;;;;;;60.00;46.75;;;;;2.05;67.25;102409.81;6222184;22;46862;-84
2022/01/16 02:06:29;;;;;;;;;53.00;45.25;;;;;2.13;67.41;102425.88;6226714;22;45212;-84
2022/01/16 02:09:06;;;;;;;;;54.00;44.50;;;;;2.36;67.10;102473.97;6259195;22;44802;-86
2022/01/16 02:11:43;;;;;;;;;57.50;45.75;;;;;2.23;67.33;102450.69;6228552;22;46959;-84
2022/01/16 02:14:47;;;;;;;;;63.75;48.75;;;;;2.36;67.41;102480.06;6256996;22;45093;-84
2022/01/16 02:30:20;;;;;;;;;57.75;47.00;;;;;2.17;67.66;102439.13;6253871;22;45228;-85
2022/01/16 02:32:48;;;;;;;;;55.75;46.50;;;;;2.38;67.74;102470.66;6256099;22;45283;-85
2022/01/16 02:35:30;;;;;;;;;58.50;46.50;;;;;2.22;67.54;102418.63;6257710;22;46205;-87
2022/01/16 02:41:24;;;;;;;;;;;;;;;;;;;;;
2022/01/16 02:43:56;;;;;;;;;54.50;43.50;;;;;2.29;67.49;102402.53;6252635;22;72049;-85
2022/01/16 02:50:01;;;;;;;;;;;;;;;;;;;;;
2022/01/16 02:52:30;;;;;;;;;51.50;42.75;;;;;2.34;67.54;102389.81;6101928;22;68038;-86
2022/01/16 02:59:08;;;;;;;;;;;;;;;;;;;;;
2022/01/16 03:02:12;;;;;;;;;55.25;47.25;;;;;2.68;67.11;102408.19;6095927;23;74219;-87
2022/01/16 03:05:24;;;;;;;;;58.25;44.00;;;;;2.59;66.98;102400.78;6073326;23;45435;-85
2022/01/16 03:08:06;;;;;;;;;61.00;47.75;;;;;2.63;67.30;102402.72;6111740;22;45306;-85
2022/01/16 03:14:33;;;;;;;;;54.25;45.00;;;;;2.64;67.25;102378.50;6126337;23;45242;-85
2022/01/16 03:23:33;;;;;;;;;63.75;47.25;;;;;2.81;66.65;102400.25;6126022;23;45235;-84
2022/01/16 03:30:16;;;;;;;;;;;;;;;;;;;;;
2022/01/16 03:36:01;;;;;;;;;;;;;;;;;;;;;
2022/01/16 03:38:37;;;;;;;;;59.75;45.50;;;;;2.86;66.61;102410.88;6216745;22;72984;-84
2022/01/16 03:41:38;;;;;;;;;62.25;45.25;;;;;2.67;66.90;102361.28;6191870;22;45257;-84
2022/01/16 03:44:21;;;;;;;;;61.50;45.00;;;;;2.85;66.66;102402.19;6190426;22;45635;-85
2022/01/16 03:47:26;;;;;;;;;63.75;49.50;;;;;2.78;67.09;102400.09;6215150;22;47802;-84
2022/01/16 03:50:21;;;;;;;;;65.75;49.50;;;;;2.74;67.27;102400.72;6187110;22;45446;-84
2022/01/16 03:53:17;;;;;;;;;;;;;;;;;;;;;
2022/01/16 03:55:49;;;;;;;;;60.75;48.00;;;;;2.64;67.06;102393.22;6216952;22;71878;-84
2022/01/16 03:58:27;;;;;;;;;71.25;53.75;;;;;2.76;67.09;102408.63;6192654;22;47061;-84
2022/01/16 04:01:45;;;;;;;;;59.00;48.75;;;;;2.76;67.16;102416.44;6190596;22;45322;-85
2022/01/16 04:11:13;;;;;;;;;;;;;;;;;;;;;
2022/01/16 04:14:10;;;;;;;;;63.50;49.25;;;;;2.71;67.22;102421.38;6213969;22;72026;-84
2022/01/16 04:20:34;;;;;;;;;;;;;;;;;;;;;
2022/01/16 04:24:13;;;;;;;;;71.50;49.50;;;;;2.87;66.86;102470.81;6227416;22;74477;-84
2022/01/16 04:26:43;;;;;;;;;65.75;51.75;;;;;2.81;66.96;102491.28;6213966;22;45149;-84
2022/01/16 04:32:51;;;;;;;;;;;;;;;;;;;;;
2022/01/16 04:35:56;;;;;;;;;;;;;;;;;;;;;
2022/01/16 04:39:20;;;;;;;;;;;;;;;;;;;;;
2022/01/16 04:45:06;;;;;;;;;53.75;43.75;;;;;2.62;67.36;102485.88;6157182;22;45474;-84
2022/01/16 04:48:04;;;;;;;;;58.25;46.75;;;;;2.55;67.66;102471.59;6246038;22;47684;-84
2022/01/16 04:54:20;;;;;;;;;54.75;46.50;;;;;2.57;68.35;102496.00;6215422;22;45122;-84
2022/01/16 04:56:55;;;;;;;;;56.25;42.00;;;;;2.52;67.45;102496.53;6245202;22;45300;-84
2022/01/16 05:00:09;;;;;;;;;;;;;;;;;;;;;
2022/01/16 05:03:06;;;;;;;;;47.75;40.00;;;;;2.25;68.20;102470.75;6216804;22;73427;-84
2022/01/16 05:05:55;;;;;;;;;44.75;38.00;;;;;2.37;68.15;102489.63;6246749;22;46364;-83
2022/01/16 05:08:30;;;;;;;;;55.00;39.50;;;;;2.16;68.63;102463.28;6246919;22;45425;-83
2022/01/16 05:11:32;;;;;;;;;45.25;37.00;;;;;2.21;68.39;102474.84;6247888;22;45426;-83
2022/01/16 05:17:30;;;;;;;;;49.00;41.25;;;;;2.18;68.53;102479.88;6247121;22;45395;-84
2022/01/16 05:20:12;;;;;;;;;42.75;35.50;;;;;2.34;68.78;102517.16;6219506;22;45563;-83
2022/01/16 05:23:47;;;;;;;;;;;;;;;;;;;;;
2022/01/16 05:26:57;;;;;;;;;;;;;;;;;;;;;
2022/01/16 05:33:11;;;;;;;;;44.75;37.75;;;;;2.03;69.44;102489.34;6216104;22;46257;-85
2022/01/16 05:39:49;;;;;;;;;;;;;;;;;;;;;
2022/01/16 05:42:29;;;;;;;;;39.75;32.75;;;;;2.12;69.21;102502.91;6247760;22;68639;-85
2022/01/16 05:45:32;;;;;;;;;46.25;32.00;;;;;2.08;69.27;102518.22;6221586;22;45506;-85
2022/01/16 05:51:47;;;;;;;;;;;;;;;;;;;;;
2022/01/16 05:57:39;;;;;;;;;;;;;;;;;;;;;
2022/01/16 06:00:30;;;;;;;;;40.25;34.25;;;;;2.12;69.58;102470.84;6248013;22;75282;-84
2022/01/16 06:03:15;;;;;;;;;;;;;;;;;;;;;
2022/01/16 06:05:53;;;;;;;;;49.75;39.75;;;;;2.40;69.67;102544.38;6247885;22;68820;-84
2022/01/16 06:08:25;;;;;;;;;35.75;33.50;;;;;2.15;69.60;102510.00;6248487;22;45495;-84
2022/01/16 06:11:36;;;;;;;;;38.50;29.75;;;;;2.27;69.95;102522.78;6221903;22;47235;-85
2022/01/16 06:14:38;;;;;;;;;30.25;26.25;;;;;2.17;69.67;102513.56;6248861;22;45482;-84
2022/01/16 06:17:26;;;;;;;;;34.50;28.25;;;;;2.27;69.51;102549.66;6247771;22;45298;-85
2022/01/16 06:20:07;;;;;;;;;42.75;34.00;;;;;2.20;69.89;102538.03;6222087;22;45439;-85
2022/01/16 06:30:05;;;;;;;;;30.25;26.25;;;;;2.28;70.21;102558.38;6048969;23;45490;-84
2022/01/16 06:32:48;;;;;;;;;29.00;27.75;;;;;2.14;70.11;102529.00;6220120;22;45523;-84
2022/01/16 06:36:01;;;;;;;;;;;;;;;;;;;;;
2022/01/16 06:38:50;;;;;;;;;;;;;;;;;;;;;
2022/01/16 06:46:00;;;;;;;;;;;;;;;;;;;;;
2022/01/16 06:58:47;;;;;;;;;37.75;32.25;;;;;2.29;70.55;102561.06;6246354;22;45095;-85
2022/01/16 07:01:38;;;;;;;;;37.00;28.00;;;;;2.31;70.24;102566.34;6246906;22;45962;-84
2022/01/16 07:04:16;;;;;;;;;26.75;24.50;;;;;2.55;70.65;102611.09;6220272;22;45296;-84
2022/01/16 07:09:51;;;;;;;;;35.00;25.25;;;;;2.57;70.55;102599.09;6236447;22;45173;-85
2022/01/16 07:16:03;;;;;;;;;;;;;;;;;;;;;
2022/01/16 09:11:11;;;;;;;;;;;;;;;;;;;;;
2022/01/16 09:13:50;;;;;;;;;;;;;;;;;;;;;
2022/01/16 09:17:03;;;;;;;;;;;;;;;;;;;;;
2022/01/16 09:20:10;;;;;;;;;;;;;;;;;;;;;
2022/01/16 09:26:03;;;;;;;;;40.50;36.75;;;;;4.11;68.20;102682.38;6278055;22;45409;-85
2022/01/16 09:32:38;;;;;;;;;;;;;;;;;;;;;
2022/01/16 09:35:18;;;;;;;;;30.25;24.75;;;;;4.08;68.17;102652.66;6177947;23;71403;-85
2022/01/16 09:37:58;;;;;;;;;31.00;22.00;;;;;4.25;67.73;102680.53;6232949;22;45533;-81
2022/01/16 09:40:47;;;;;;;;;22.25;19.75;;;;;4.19;67.64;102675.88;6250086;22;45257;-82
2022/01/16 09:43:30;;;;;;;;;29.25;24.50;;;;;4.14;68.08;102660.78;6250593;22;47197;-82
2022/01/16 09:46:14;;;;;;;;;24.25;21.75;;;;;4.32;67.63;102676.53;6250491;22;45253;-83
2022/01/16 09:48:54;;;;;;;;;24.75;19.00;;;;;4.45;67.41;102686.78;6249115;22;45255;-81
2022/01/16 09:51:58;;;;;;;;;30.00;27.25;;;;;4.58;67.45;102688.34;6250626;22;45375;-82
2022/01/16 09:54:43;;;;;;;;;25.75;20.00;;;;;4.70;67.47;102686.34;6249901;22;46696;-82
2022/01/16 09:57:24;;;;;;;;;;;;;;;;;;;;;
2022/01/16 09:59:52;;;;;;;;;21.50;18.50;;;;;4.66;66.67;102670.47;6276773;22;67112;-83
2022/01/16 10:02:33;;;;;;;;;23.75;20.00;;;;;4.73;66.30;102678.69;6278482;22;45340;-84
2022/01/16 10:06:04;;;;;;;;;24.25;22.75;;;;;4.90;66.40;102691.72;6250895;22;46479;-84
2022/01/16 10:08:36;;;;;;;;;19.00;18.25;;;;;4.85;66.40;102681.03;6272676;22;45182;-83
2022/01/16 10:15:13;;;;;;;;;;;;;;;;;;;;;
2022/01/16 10:17:54;;;;;;;;;22.75;17.75;;;;;4.81;65.97;102685.22;6272216;22;75192;-82
2022/01/16 10:20:40;;;;;;;;;26.75;19.00;;;;;4.84;66.38;102680.16;6248377;22;45510;-84
2022/01/16 10:23:36;;;;;;;;;26.25;21.00;;;;;4.79;66.87;102662.47;6277914;22;45236;-84
2022/01/16 10:26:32;;;;;;;;;15.00;12.00;;;;;5.10;66.62;102688.38;6250188;22;45628;-83
2022/01/16 10:29:10;;;;;;;;;;;;;;;;;;;;;
2022/01/16 10:32:18;;;;;;;;;20.00;20.00;;;;;5.15;65.77;102641.63;6278038;22;71612;-84
2022/01/16 10:35:17;;;;;;;;;23.75;20.50;;;;;5.36;65.73;102684.44;6250980;22;45397;-85
2022/01/16 10:41:58;;;;;;;;;;;;;;;;;;;;;
2022/01/16 10:44:39;;;;;;;;;22.00;18.00;;;;;5.68;65.67;102708.63;6036608;23;74533;-83
2022/01/16 10:55:11;;;;;;;;;19.25;17.50;;;;;6.10;64.81;102674.91;6092710;23;45517;-83
2022/01/16 10:57:37;;;;;;;;;19.75;18.50;;;;;6.00;64.44;102639.59;6038534;23;45402;-84
2022/01/16 11:00:38;;;;;;;;;21.50;20.25;;;;;6.27;64.48;102678.28;6154752;22;45336;-84
2022/01/16 11:03:48;;;;;;;;;19.25;16.25;;;;;6.32;64.06;102680.28;6251507;22;45462;-83
2022/01/16 11:12:50;;;;;;;;;;;;;;;;;;;;;
2022/01/16 11:15:20;;;;;;;;;22.00;19.75;;;;;6.49;64.18;102695.81;6277436;22;72046;-82
2022/01/16 11:18:37;;;;;;;;;17.50;16.75;;;;;6.64;64.14;102683.44;6250236;22;46859;-79
2022/01/16 11:26:27;;;;;;;;;24.00;22.00;;;;;7.11;62.73;102689.81;6278464;22;45322;-85
2022/01/16 11:28:56;;;;;;;;;22.00;21.25;;;;;7.21;62.72;102699.81;6250620;22;46971;-83
2022/01/16 11:31:25;;;;;;;;;19.75;18.50;;;;;7.05;62.40;102666.84;6253144;22;45141;-89
2022/01/16 11:34:00;;;;;;;;;22.75;20.50;;;;;7.15;62.42;102683.84;6247426;22;45408;-83
2022/01/16 11:36:41;;;;;;;;;18.75;18.75;;;;;7.07;62.13;102683.53;6277787;22;45651;-89
2022/01/16 11:39:13;;;;;;;;;25.25;20.00;;;;;7.13;62.14;102714.31;6250655;22;47094;-86
2022/01/16 11:41:56;;;;;;;;;20.75;17.00;;;;;7.00;62.08;102705.06;6251796;22;45393;-87
2022/01/16 11:44:32;;;;;;;;;20.25;19.25;;;;;6.87;62.18;102707.06;6254364;22;45496;-87
2022/01/16 11:47:03;;;;;;;;;22.00;17.25;;;;;6.73;62.11;102698.63;6252755;22;45558;-88
2022/01/16 11:49:38;;;;;;;;;17.75;17.00;;;;;6.46;62.63;102678.28;6257811;22;46984;-86
2022/01/16 11:52:09;;;;;;;;;20.75;16.50;;;;;6.29;62.97;102669.69;6250272;22;45335;-90
2022/01/16 11:54:42;;;;;;;;;18.50;17.25;;;;;6.20;63.24;102656.16;6250890;22;45383;-87
2022/01/16 11:57:31;;;;;;;;;17.00;15.50;;;;;6.13;63.50;102651.50;6250645;22;45940;-87
2022/01/16 12:00:16;;;;;;;;;19.00;18.50;;;;;6.19;63.66;102659.63;6253801;22;46993;-87
2022/01/16 12:02:55;;;;;;;;;20.25;16.50;;;;;6.14;63.97;102654.19;6249448;22;45296;-87
2022/01/16 12:05:27;;;;;;;;;21.25;17.00;;;;;6.11;64.06;102661.88;6278692;22;45216;-88
2022/01/16 12:08:19;;;;;;;;;21.75;17.50;;;;;6.10;64.15;102675.78;6278300;22;45260;-87
2022/01/16 12:11:00;;;;;;;;;;;;;;;;;;;;;
2022/01/16 12:13:54;;;;;;;;;22.25;19.00;;;;;5.99;64.74;102681.34;6276189;22;73491;-85
2022/01/16 12:16:36;;;;;;;;;20.25;16.50;;;;;5.77;64.58;102662.00;6194933;22;45224;-86
2022/01/16 12:19:46;;;;;;;;;23.25;20.75;;;;;5.94;64.85;102700.34;6278314;22;45689;-87
2022/01/16 12:22:17;;;;;;;;;21.00;19.00;;;;;5.89;64.71;102683.50;6122807;23;46907;-85
2022/01/16 12:25:08;;;;;;;;;23.25;20.75;;;;;5.93;64.76;102693.34;6231874;22;45162;-87
2022/01/16 12:31:03;;;;;;;;;24.25;21.50;;;;;5.88;64.93;102691.25;6266694;22;45427;-86
2022/01/16 12:34:02;;;;;;;;;;;;;;;;;;;;;
2022/01/16 12:39:47;;;;;;;;;27.00;25.25;;;;;5.53;65.56;102643.47;6272922;22;45362;-88
2022/01/16 12:42:28;;;;;;;;;25.25;21.25;;;;;5.53;65.50;102652.22;6251399;22;45482;-86
2022/01/16 12:45:02;;;;;;;;;29.00;23.25;;;;;5.70;65.63;102683.47;6251289;22;47710;-86
2022/01/16 12:47:29;;;;;;;;;23.50;20.00;;;;;5.60;65.56;102655.13;6255770;22;45306;-86
2022/01/16 12:50:13;;;;;;;;;29.00;24.75;;;;;5.50;65.71;102636.38;6252776;22;45340;-83
2022/01/16 12:52:56;;;;;;;;;23.50;19.50;;;;;5.69;65.95;102679.97;6253086;22;45485;-86
2022/01/16 12:55:48;;;;;;;;;21.00;19.75;;;;;5.67;66.09;102676.38;6280657;22;45467;-85
2022/01/16 13:01:33;;;;;;;;;21.75;20.75;;;;;5.50;66.32;102652.03;6155798;23;45524;-87
2022/01/16 13:07:43;;;;;;;;;;;;;;;;;;;;;
2022/01/16 13:11:08;;;;;;;;;22.00;19.00;;;;;5.60;67.05;102683.84;6122065;23;72033;-88
2022/01/16 13:13:44;;;;;;;;;22.25;21.00;;;;;5.49;67.53;102665.94;5931604;23;45435;-82
2022/01/16 18:31:56;;;;;;;;;;;;;;;;;;;;;
